Tiempo atmosférico en la estación meteorológica de Osuna, Sevilla (255 m.)



Fecha
DESCASC
Temp. máxima en grados centígrados (hora)
DESCASC
Temp. mínima en grados centígrados (hora)
DESCASC
Temp. media en grados centígrados
DESCASC
Racha de viento máxima en m/sg (hora)
DESCASC
Velocidad máxima media en intervalos de 10 minutos(hora)
DESCASC
Precipitaciones diarias en mm
DESCASC
Precipitaciones de 00:00 a 06:00 en mm
DESCASC
Precipitaciones de 06:00 a 12:00 en mm
DESCASC
Precipitaciones de 12:00 a 18:00 en mm
DESCASC
Precipitaciones de 18:00 a 24:00 en mm
DESCASC
17-09-2020 29.3 (14:30) 21.8 (04:40) 25.5 12.5 (17:50) 7.22 (01:00) 0 0 0 0 0
15-09-2020 31.8 (18:10) 20.3 (08:20) 26 8.61 (13:40) 5 (16:40) 0 0 0 0 0
14-09-2020 31.3 (16:20) 23.2 (23:59) 27.3 16.39 (12:20) 9.17 (12:20) 0 0 0 0 0
13-09-2020 31.5 (17:10) 24.7 (00:00) 28.1 17.78 (15:00) 9.72 (13:50) 0 0 0 0 0
12-09-2020 33 (17:20) 24.6 (07:10) 28.8 14.17 (20:40) 7.78 (15:00) 0 0 0 0 0
11-09-2020 33.3 (16:50) 22.9 (00:00) 28.1 11.11 (16:50) 6.11 (17:10) 0 0 0 0 0
10-09-2020 33.5 (17:20) 19.9 (00:00) 26.7 6.11 (23:20) 3.61 (03:50) 0 0 0 0 0
09-09-2020 32.4 (18:50) 20.6 (06:00) 26.5 11.67 (01:20) 6.11 (00:30) 0 0 0 0 0
08-09-2020 28.8 (15:00) 22.2 (00:00) 25.5 13.06 (22:40) 7.22 (03:30) 0 0 0 0 0
07-09-2020 35.9 (18:40) 21.2 (07:40) 28.6 8.89 (20:50) 5.28 (20:40) 0 0 0 0 0
06-09-2020 33.3 (17:50) 22.5 (00:00) 27.9 11.39 (00:30) 6.94 (00:30) 0 0 0 0 0
05-09-2020 33.3 (16:50) 21.5 (00:00) 27.4 12.22 (01:50) 6.39 (04:20) 0 0 0 0 0
04-09-2020 31.1 (17:00) 21.5 (00:00) 26.3 15.28 (01:00) 8.06 (01:40) 0 0 0 0 0
03-09-2020 30.5 (16:00) 21.7 (00:00) 26.1 14.44 (23:59) 6.94 (09:30) 0 0 0 0 0
02-09-2020 32.7 (16:50) 19.7 (00:00) 26.2 9.72 (22:20) 5.83 (19:50) 0 0 0 0 0
01-09-2020 31.1 (18:10) 20.3 (00:00) 25.7 9.17 (01:00) 5 (00:20) 0 0 0 0 0
31-08-2020 29.7 (16:40) 21 (00:00) 25.4 12.22 (09:20) 6.94 (09:20) 0 0 0 0 0
30-08-2020 31.1 (18:00) 18.8 (00:00) 24.9 7.78 (18:50) 3.89 (23:50) 0 0 0 0 0
29-08-2020 29.1 (18:40) 16.8 (00:00) 22.9 12.22 (15:30) 7.22 (15:40) 0 0 0 0 0
28-08-2020 34.1 (18:20) 22.3 (00:00) 28.2 16.11 (20:50) 8.61 (19:00) 0 0 0 0 0
27-08-2020 39.5 (16:20) 26.2 (00:00) 32.9 14.17 (17:50) 7.22 (17:40) 0 0 0 0 0
26-08-2020 39.4 (17:10) 24.7 (00:00) 32.1 7.5 (18:30) 4.72 (19:30) 0 0 0 0 0
25-08-2020 38.6 (17:50) 23.4 (00:00) 31 9.72 (16:50) 5.28 (16:50) 0 0 0 0 0
24-08-2020 36 (16:40) 23 (06:20) 29.5 7.22 (19:00) 5 (02:10) 0 0 0 0 0
23-08-2020 38.5 (17:50) 23 (00:00) 30.8 7.78 (16:40) 5 (18:20) 0 0 0 0 0
22-08-2020 37.3 (18:00) 23.4 (00:00) 30.3 6.11 (19:00) 3.89 (17:00) 0 0 0 0 0
21-08-2020 36 (18:40) 20.1 (07:50) 28.1 8.33 (17:30) 5 (18:00) 0 0 0 0 0
20-08-2020 37.4 (16:50) 22.9 (00:00) 30.2 12.78 (19:50) 7.5 (19:30) 0 0 0 0 0

Gráficas

Temp. máximas Temp. mínimas Temp. medias Precipitaciones Rachas de viento máximas Velocidades máximas media en intervalos de 10 minutos

Datos horarios

Fecha y hora oficial Temperatura (ºC) Velocidad del viento (km/h) Dirección del viento Racha (km/h) Dirección de racha Precipitación (mm) Presión (hPa) Tendencia (hPa) Humedad (%)
2020-09-18 23:00:00 20.8 13 Sudoeste 28 Sudoeste 0 -- -- 68
2020-09-18 22:00:00 21.2 14 Sudoeste 28 Sudoeste 0 -- -- 68
2020-09-18 21:00:00 21.6 17 Sudoeste 38 Oeste 0 -- -- 67
2020-09-18 20:00:00 23.6 25 Oeste 44 Sudoeste 0 -- -- 63
2020-09-18 19:00:00 25.2 26 Sudoeste 56 Oeste 0 -- -- 47
2020-09-18 18:00:00 26.5 27 Sudoeste 57 Sudoeste 0 -- -- 46
2020-09-18 17:00:00 27.3 32 Oeste 55 Sudoeste 0 -- -- 47
2020-09-18 16:00:00 28.1 31 Sudoeste 55 Sudoeste 0 -- -- 41
2020-09-18 15:00:00 28.3 29 Sudoeste 57 Sudoeste 0 -- -- 39
2020-09-18 14:00:00 28.3 30 Sudoeste 56 Sudoeste 0 -- -- 37
2020-09-18 13:00:00 27.7 24 Sudoeste 49 Sur 0 -- -- 41
2020-09-18 12:00:00 25.8 23 Sur 38 Sudeste 0 -- -- 54
2020-09-18 11:00:00 23.6 18 Sur 43 Sudeste 0 -- -- 63
2020-09-18 10:00:00 22 21 Sudeste 39 Sudeste 0 -- -- 71
2020-09-18 09:00:00 20.7 12 Sudeste 24 Sudeste 0 -- -- 75
2020-09-18 08:00:00 20.7 12 Sudeste 24 Sudeste 0 -- -- 74
2020-09-18 07:00:00 22.1 10 Sur 29 Sur 0 -- -- 65
2020-09-18 06:00:00 21.7 8 Sur 32 Sur 0 -- -- 67
2020-09-18 05:00:00 22.8 21 Sur 37 Sur 0 -- -- 61
2020-09-18 04:00:00 23.5 22 Sur 44 Sudeste 0 -- -- 57
2020-09-18 03:00:00 23.7 15 Sur 52 Sur 0 -- -- 56
2020-09-18 02:00:00 24 24 Sur 45 Sur 0 -- -- 53
2020-09-18 01:00:00 24.2 22 Sur 41 Sur 0 -- -- 52
2020-09-18 00:00:00 24.6 15 Sur 37 Sur 0 -- -- 51
2020-09-17 23:00:00 25.3 12 Sur 30 Sudeste 0 -- -- 49
2020-09-17 22:00:00 26 14 Sur 29 Sur 0 -- -- 50
2020-09-17 21:00:00 26.7 15 Sur 42 Sur 0 -- -- 47
2020-09-17 20:00:00 27.1 20 Sur 45 Sur 0 -- -- 47
2020-09-17 19:00:00 28.3 17 Sur 41 Sudeste 0 -- -- 44
2020-09-17 18:00:00 28.6 24 Sudeste 45 Sudeste 0 -- -- 45
2020-09-17 17:00:00 29.2 20 Sur 40 Sudeste 0 -- -- 44
2020-09-17 16:00:00 29.1 19 Sur 41 Sudeste 0 -- -- 44
2020-09-17 15:00:00 28.8 16 Sur 28 Sudeste 0 -- -- 46
2020-09-17 14:00:00 28.5 15 Sur 33 Sudeste 0 -- -- 49
2020-09-17 13:00:00 26.9 16 Sudeste 38 Sudeste 0 -- -- 57
2020-09-17 12:00:00 25.9 21 Sudeste 37 Sudeste 0 -- -- 61
2020-09-17 11:00:00 26.1 9 Sur 35 Sudeste 0 -- -- 56
2020-09-17 10:00:00 24.7 18 Sudeste 34 Sudeste 0 -- -- 65
2020-09-17 09:00:00 23.3 19 Sudeste 36 Sudeste 0 -- -- 70
2020-09-17 08:00:00 23 18 Sudeste 35 Sudeste 0 -- -- 72
2020-09-17 07:00:00 22.9 14 Sudeste 25 Sudeste 0 -- -- 71
2020-09-17 06:00:00 22.7 5 Sudeste 14 Sudeste 0 -- -- 71
2020-09-17 05:00:00 22.2 3 Este 9 Este 0 -- -- 73
2020-09-17 04:00:00 21.9 0 Calma 14 Sudoeste 0 -- -- 79
2020-09-17 03:00:00 22.5 10 Sudoeste 26 Sur 0 -- -- 78
2020-09-17 02:00:00 23.7 15 Sur 42 Sudeste 0 -- -- 58
2020-09-17 01:00:00 24 26 Sudeste 38 Sudeste 0 -- -- 60
2020-09-17 00:00:00 24.3 8 Sur 24 Sudeste 0 -- -- 62
2020-09-16 23:00:00 24.2 9 Sudeste 22 Sudeste 0.2 -- -- 65
2020-09-16 22:00:00 24.3 8 Sudeste 23 Sudoeste 0 -- -- 75
2020-09-16 21:00:00 25.4 18 Oeste 29 Oeste 0 -- -- 70
2020-09-16 20:00:00 28.2 21 Oeste 30 Oeste 0 -- -- 49
2020-09-16 19:00:00 29.6 13 Oeste 21 Oeste 0 -- -- 41
2020-09-16 18:00:00 30 13 Oeste 25 Oeste 0 -- -- 41
2020-09-16 17:00:00 30.2 11 Oeste 21 Sudoeste 0 -- -- 39
2020-09-16 16:00:00 30.5 7 Oeste 20 Oeste 0 -- -- 38
2020-09-16 15:00:00 30.3 11 Oeste 21 Oeste 0 -- -- 39
2020-09-16 14:00:00 29.7 9 Oeste 17 Oeste 0 -- -- 40
2020-09-16 13:00:00 28.3 13 Oeste 23 Sudeste 0 -- -- 43
2020-09-16 12:00:00 28.3 9 Sur 18 Sudeste 0 -- -- 40
2020-09-16 11:00:00 26.1 6 Sudoeste 14 Oeste 0 -- -- 47
2020-09-16 10:00:00 23.8 7 Este 15 Este 0 -- -- 54
2020-09-16 09:00:00 21.5 9 Este 18 Sudeste 0 -- -- 61
2020-09-16 08:00:00 22.2 8 Sudeste 16 Sudeste 0 -- -- 59
2020-09-16 07:00:00 21.6 10 Sudeste 15 Este 0 -- -- 60
2020-09-16 06:00:00 22.6 6 Este 13 Sudeste 0 -- -- 60
2020-09-16 05:00:00 22.5 7 Sudeste 12 Sudeste 0 -- -- 65
2020-09-16 04:00:00 23 4 Sudeste 9 Sudeste 0 -- -- 64
2020-09-16 03:00:00 23.1 5 Sur 8 Sudoeste 0 -- -- 64
2020-09-16 02:00:00 23.4 4 Sur 12 Sur 0 -- -- 63
2020-09-16 01:00:00 24 5 Sudoeste 11 Sur 0 -- -- 61
2020-09-16 00:00:00 24.9 7 Sudoeste 14 Oeste 0 -- -- 57
2020-09-15 23:00:00 26.3 4 Sudoeste 9 Sudoeste 0 -- -- 42
2020-09-15 22:00:00 27.5 5 Sudeste 14 Sudeste 0 -- -- 35
2020-09-15 21:00:00 28.8 5 Sudeste 12 Sudeste 0 -- -- 36
2020-09-15 20:00:00 30.6 3 Noroeste 14 Oeste 0 -- -- 39
2020-09-15 19:00:00 31.5 4 Oeste 16 Oeste 0 -- -- 38
2020-09-15 18:00:00 31.7 11 Oeste 21 Oeste 0 -- -- 38
2020-09-15 17:00:00 31.4 13 Oeste 26 Oeste 0 -- -- 39
2020-09-15 16:00:00 31.2 5 Oeste 27 Sudeste 0 -- -- 40
2020-09-15 15:00:00 30.2 12 Sur 28 Sudeste 0 -- -- 41
2020-09-15 14:00:00 28.7 14 Sudeste 31 Este 0 -- -- 44
2020-09-15 13:00:00 27.8 15 Sudeste 27 Sudeste 0 -- -- 47
2020-09-15 12:00:00 25.8 12 Sudeste 26 Sudeste 0 -- -- 56
2020-09-15 11:00:00 23.9 6 Nordeste 14 Este 0 -- -- 66
2020-09-15 10:00:00 22.4 6 Este 13 Este 0 -- -- 72
2020-09-15 09:00:00 20.8 7 Nordeste 13 Nordeste 0 -- -- 80
2020-09-15 08:00:00 20.4 3 Sudeste 7 Este 0 -- -- 83
2020-09-15 07:00:00 20.7 0 Calma 8 Sur 0 -- -- 81
2020-09-15 06:00:00 20.9 0 Calma 4 Sudoeste 0 -- -- 81
2020-09-15 05:00:00 21.2 0 Calma 4 Sudoeste 0 -- -- 80
2020-09-15 04:00:00 21.2 0 Calma 7 Noroeste 0 -- -- 82
2020-09-15 03:00:00 21.2 5 Oeste 9 Noroeste 0 -- -- 82
2020-09-15 02:00:00 21.7 5 Oeste 7 Oeste 0 -- -- 83
2020-09-15 01:00:00 22.1 4 Oeste 11 Noroeste 0 -- -- 79
2020-09-15 00:00:00 23.2 3 Noroeste 9 Oeste 0 -- -- 75
2020-09-14 23:00:00 24.1 7 Oeste 18 Oeste 0 -- -- 72
2020-09-14 22:00:00 25.5 9 Oeste 27 Oeste 0 -- -- 68
2020-09-14 21:00:00 27.3 14 Oeste 22 Sudeste 0 -- -- 60
2020-09-14 20:00:00 28.7 14 Sur 40 Sudeste 0 -- -- 36
2020-09-14 19:00:00 29.7 20 Sudeste 42 Sudeste 0 -- -- 36
2020-09-14 18:00:00 30.2 23 Sudeste 42 Sudeste 0 -- -- 33
2020-09-14 17:00:00 30.4 24 Sudeste 41 Sudeste 0 -- -- 32
2020-09-14 16:00:00 30.9 21 Sudeste 41 Sudeste 0 -- -- 31
2020-09-14 15:00:00 29.6 14 Sudeste 33 Sudeste 0 -- -- 37
2020-09-14 14:00:00 29.9 18 Sur 51 Sudeste 0 -- -- 36
2020-09-14 13:00:00 29.1 28 Sudeste 59 Sudeste 0 -- -- 38
2020-09-14 12:00:00 28.1 32 Sudeste 58 Sudeste 0 -- -- 39
2020-09-14 11:00:00 27.4 27 Sudeste 56 Sudeste 0 -- -- 41
2020-09-14 10:00:00 26.1 29 Sudeste 51 Sudeste 0 -- -- 44
2020-09-14 09:00:00 25.4 23 Sudeste 51 Sudeste 0 -- -- 47
2020-09-14 08:00:00 25.2 17 Sudeste 42 Sudeste 0 -- -- 48
2020-09-14 07:00:00 24.8 5 Este 33 Sur 0 -- -- 51
2020-09-14 06:00:00 25.1 6 Sur 30 Sudeste 0 -- -- 51
2020-09-14 05:00:00 25.3 13 Sur 40 Sudeste 0 -- -- 50
2020-09-14 04:00:00 25.9 21 Sudeste 46 Sur 0 -- -- 46
2020-09-14 03:00:00 25.5 9 Sudeste 33 Sur 0 -- -- 48
2020-09-14 02:00:00 25.9 6 Este 31 Sudoeste 0 -- -- 46
2020-09-14 01:00:00 25.9 11 Sudoeste 56 Sudeste 0 -- -- 44
2020-09-14 00:00:00 26.5 29 Sudeste 60 Sudeste 0 -- -- 43
2020-09-13 23:00:00 27.2 27 Sudeste 51 Sudeste 0 -- -- 39
2020-09-13 22:00:00 27.5 27 Sudeste 52 Sur 0 -- -- 38
2020-09-13 21:00:00 28 24 Sudeste 54 Sudeste 0 -- -- 35
2020-09-13 20:00:00 29 22 Sur 44 Sur 0 -- -- 34
2020-09-13 19:00:00 30.1 23 Sur 59 Sur 0 -- -- 32
2020-09-13 18:00:00 31 22 Sur 47 Sur 0 -- -- 32
2020-09-13 17:00:00 31.3 22 Sur 58 Sudeste 0 -- -- 30
2020-09-13 16:00:00 30.4 31 Sudeste 58 Sudeste 0 -- -- 32
2020-09-13 15:00:00 30.5 33 Sudeste 64 Sudeste 0 -- -- 33
2020-09-13 14:00:00 29.6 29 Sudeste 61 Sudeste 0 -- -- 35
2020-09-13 13:00:00 29 28 Sudeste 58 Sudeste 0 -- -- 35
2020-09-13 12:00:00 28.1 29 Sudeste 61 Sudeste 0 -- -- 38
2020-09-13 11:00:00 28.1 25 Sudeste 61 Sudeste 0 -- -- 37
2020-09-13 10:00:00 27.6 11 Sudeste 39 Sudeste 0 -- -- 37
2020-09-13 09:00:00 26.4 14 Sudeste 28 Sudeste 0 -- -- 38
2020-09-13 08:00:00 26.1 11 Este 22 Este 0 -- -- 38
2020-09-13 07:00:00 24.9 10 Nordeste 24 Nordeste 0 -- -- 44
2020-09-13 06:00:00 25 8 Este 28 Sudeste 0 -- -- 44
2020-09-13 05:00:00 25.8 15 Sudeste 46 Sudeste 0 -- -- 42
2020-09-13 04:00:00 26 26 Sudeste 55 Sudeste 0 -- -- 42
2020-09-13 03:00:00 26 23 Sudeste 44 Sudeste 0 -- -- 43
2020-09-13 02:00:00 25.6 22 Sudeste 47 Sudeste 0 -- -- 45
2020-09-13 01:00:00 26.3 19 Sudeste 46 Sudeste 0 -- -- 40
2020-09-13 00:00:00 27 20 Sudeste 47 Sudeste 0 -- -- 37
2020-09-12 23:00:00 27.4 24 Sudeste 51 Sudeste 0 -- -- 34
2020-09-12 22:00:00 28.1 23 Sudeste 45 Sudeste 0 -- -- 30
2020-09-12 21:00:00 28.6 28 Sudeste 51 Sudeste 0 -- -- 28
2020-09-12 20:00:00 29.4 26 Sudeste 47 Sudeste 0 -- -- 27
2020-09-12 19:00:00 31 23 Sudeste 47 Sur 0 -- -- 25
2020-09-12 18:00:00 32.4 25 Sudeste 48 Sudeste 0 -- -- 23
2020-09-12 17:00:00 32.9 21 Sur 45 Sudeste 0 -- -- 24
2020-09-12 16:00:00 32.5 24 Sur 47 Sudeste 0 -- -- 25
2020-09-12 15:00:00 32 28 Sudeste 48 Sudeste 0 -- -- 26
2020-09-12 14:00:00 31.4 25 Sudeste 47 Sudeste 0 -- -- 27
2020-09-12 13:00:00 30.9 26 Sudeste 51 Sur 0 -- -- 28
2020-09-12 12:00:00 30.3 17 Sudeste 36 Sudeste 0 -- -- 28
2020-09-12 11:00:00 29.2 11 Sudeste 31 Sudeste 0 -- -- 30
2020-09-12 10:00:00 26.2 11 Este 22 Este 0 -- -- 34
2020-09-12 09:00:00 24.7 8 Este 20 Sudeste 0 -- -- 36
2020-09-12 08:00:00 25 8 Este 24 Sudeste 0 -- -- 34
2020-09-12 07:00:00 24.7 11 Sudeste 26 Sudeste 0 -- -- 35
2020-09-12 06:00:00 25 8 Sudeste 15 Sudeste 0 -- -- 34
2020-09-12 05:00:00 25.4 4 Este 19 Sudeste 0 -- -- 33
2020-09-12 04:00:00 25.8 6 Sudeste 15 Este 0 -- -- 33
2020-09-12 03:00:00 26.5 4 Sudeste 21 Sudeste 0 -- -- 31
2020-09-12 02:00:00 26.7 5 Sudoeste 17 Sur 0 -- -- 30
2020-09-12 01:00:00 26.6 7 Sudeste 17 Sudeste 0 -- -- 30
2020-09-12 00:00:00 26.8 8 Sudeste 13 Sudeste 0 -- -- 31
2020-09-11 23:00:00 27.1 3 Sudoeste 26 Sudeste 0 -- -- 30
2020-09-11 22:00:00 27.7 19 Sudeste 29 Sudeste 0 -- -- 30
2020-09-11 21:00:00 28.9 12 Sudeste 30 Sur 0 -- -- 28
2020-09-11 20:00:00 31.2 15 Sudeste 29 Sudeste 0 -- -- 25
2020-09-11 19:00:00 31.8 17 Sudeste 34 Sudeste 0 -- -- 23
2020-09-11 18:00:00 32.5 18 Sudeste 38 Sudeste 0 -- -- 21
2020-09-11 17:00:00 33.2 20 Sudeste 40 Sudeste 0 -- -- 22
2020-09-11 16:00:00 32.7 15 Sudeste 35 Sudeste 0 -- -- 24
2020-09-11 15:00:00 32.1 18 Sudeste 33 Sur 0 -- -- 25
2020-09-11 14:00:00 31.8 15 Sudeste 29 Sudeste 0 -- -- 26
2020-09-11 13:00:00 30.7 14 Sudeste 29 Sudeste 0 -- -- 29
2020-09-11 12:00:00 29.4 13 Sudeste 25 Este 0 -- -- 31
2020-09-11 11:00:00 27.2 11 Sudeste 21 Este 0 -- -- 36
2020-09-11 10:00:00 24.8 10 Sudeste 19 Este 0 -- -- 41
2020-09-11 09:00:00 23 15 Sudeste 24 Este 0 -- -- 42
2020-09-11 08:00:00 23.4 11 Este 19 Este 0 -- -- 39
2020-09-11 07:00:00 23.6 11 Sudeste 19 Sudeste 0 -- -- 40
2020-09-11 06:00:00 23.7 14 Sudeste 24 Sudeste 0 -- -- 42
2020-09-11 05:00:00 24 12 Sudeste 21 Sudeste 0 -- -- 43
2020-09-11 04:00:00 23.9 13 Sudeste 19 Sudeste 0 -- -- 45
2020-09-11 03:00:00 24.2 11 Sudeste 15 Este 0 -- -- 44
2020-09-11 02:00:00 25.9 6 Sudeste 13 Sur 0 -- -- 41
2020-09-11 01:00:00 25.8 8 Sur 14 Sur 0 -- -- 43
2020-09-11 00:00:00 26.2 7 Sur 22 Sudoeste 0 -- -- 40
2020-09-10 23:00:00 28.4 6 Sudeste 10 Sudeste 0 -- -- 28
2020-09-10 22:00:00 29.1 6 Sudeste 8 Sudeste 0 -- -- 27
2020-09-10 21:00:00 30.9 4 Este 9 Este 0 -- -- 24
2020-09-10 20:00:00 32.6 3 Nordeste 13 Nordeste 0 -- -- 23
2020-09-10 19:00:00 32.9 9 Norte 16 Norte 0 -- -- 22
2020-09-10 18:00:00 33.2 7 Noroeste 17 Este 0 -- -- 23
2020-09-10 17:00:00 33.4 5 Nordeste 14 Nordeste 0 -- -- 23
2020-09-10 16:00:00 32.9 6 Oeste 15 Este 0 -- -- 24
2020-09-10 15:00:00 31.6 8 Nordeste 15 Noroeste 0 -- -- 30
2020-09-10 14:00:00 30.2 5 Nordeste 12 Norte 0 -- -- 34
2020-09-10 13:00:00 28.3 4 Nordeste 13 Norte 0 -- -- 37
2020-09-10 12:00:00 26.8 8 Noroeste 15 Noroeste 0 -- -- 41
2020-09-10 11:00:00 24.8 4 Noroeste 9 Noroeste 0 -- -- 42
2020-09-10 10:00:00 22.6 4 Noroeste 7 Oeste 0 -- -- 49
2020-09-10 09:00:00 21 2 Sur 8 Sudeste 0 -- -- 45
2020-09-10 08:00:00 20.2 0 Calma 7 Norte 0 -- -- 50
2020-09-10 07:00:00 21.2 4 Norte 17 Sudeste 0 -- -- 46
2020-09-10 06:00:00 21.9 6 Sudeste 17 Este 0 -- -- 45
2020-09-10 05:00:00 22 10 Este 19 Este 0 -- -- 45
2020-09-10 04:00:00 22.1 11 Sudeste 19 Sudeste 0 -- -- 45
2020-09-10 03:00:00 23.7 5 Sur 10 Oeste 0 -- -- 47
2020-09-10 02:00:00 24.2 4 Sur 8 Sur 0 -- -- 47
2020-09-10 01:00:00 24.8 5 Sudoeste 12 Sudoeste 0 -- -- 47
2020-09-10 00:00:00 25.8 5 Sur 14 Sur 0 -- -- 41
2020-09-09 23:00:00 26.6 4 Sudoeste 21 Oeste 0 -- -- 35
2020-09-09 22:00:00 27.9 9 Sudeste 16 Sudeste 0 -- -- 33
2020-09-09 21:00:00 30 4 Este 13 Este 0 -- -- 30
2020-09-09 20:00:00 31.5 0 Calma 13 Sudeste 0 -- -- 27
2020-09-09 19:00:00 32.3 5 Oeste 13 Sudeste 0 -- -- 25
2020-09-09 18:00:00 31.9 6 Este 21 Este 0 -- -- 27
2020-09-09 17:00:00 31.8 5 Sudeste 21 Este 0 -- -- 28
2020-09-09 16:00:00 31.1 9 Sur 21 Sudeste 0 -- -- 29
2020-09-09 15:00:00 30.3 12 Sudeste 23 Sudeste 0 -- -- 30
2020-09-09 14:00:00 29.2 13 Sudeste 23 Sudeste 0 -- -- 33
2020-09-09 13:00:00 27.9 15 Sudeste 29 Sudeste 0 -- -- 38
2020-09-09 12:00:00 26.6 13 Sur 27 Sur 0 -- -- 41
2020-09-09 11:00:00 25.3 13 Sur 28 Sudeste 0 -- -- 43
2020-09-09 10:00:00 23.4 12 Sur 24 Sudeste 0 -- -- 50
2020-09-09 09:00:00 21.4 12 Sudeste 29 Sudeste 0 -- -- 58
2020-09-09 08:00:00 20.8 9 Sudeste 21 Sudeste 0 -- -- 60
2020-09-09 07:00:00 20.6 13 Sudeste 28 Sudeste 0 -- -- 61
2020-09-09 06:00:00 20.6 13 Sudeste 25 Sudeste 0 -- -- 63
2020-09-09 05:00:00 20.9 12 Sudeste 30 Sudeste 0 -- -- 62
2020-09-09 04:00:00 21.2 15 Sudeste 31 Sudeste 0 -- -- 60
2020-09-09 03:00:00 21.4 16 Sudeste 33 Sudeste 0 -- -- 59
2020-09-09 02:00:00 21.6 21 Sudeste 42 Sudeste 0 -- -- 59
2020-09-09 01:00:00 22 19 Sudeste 40 Sudeste 0 -- -- 59
2020-09-09 00:00:00 22.2 21 Sudeste 41 Sudeste 0 -- -- 58
2020-09-08 23:00:00 22.5 23 Sudeste 47 Sudeste 0 -- -- 54
2020-09-08 22:00:00 23.1 22 Sudeste 42 Sudeste 0 -- -- 52
2020-09-08 21:00:00 24.3 21 Sudeste 38 Este 0 -- -- 50
2020-09-08 20:00:00 26 22 Sudeste 40 Sudeste 0 -- -- 44
2020-09-08 19:00:00 27.6 22 Sudeste 38 Sudeste 0 -- -- 43
2020-09-08 18:00:00 28 20 Sudeste 38 Sudeste 0 -- -- 44
2020-09-08 17:00:00 28.3 22 Sudeste 39 Sudeste 0 -- -- 46
2020-09-08 16:00:00 28.6 21 Sudeste 40 Sudeste 0 -- -- 44
2020-09-08 15:00:00 28.8 19 Sudeste 35 Sur 0 -- -- 44
2020-09-08 14:00:00 28.2 18 Sudeste 38 Sudeste 0 -- -- 44
2020-09-08 13:00:00 27.4 21 Sudeste 39 Sudeste 0 -- -- 46
2020-09-08 12:00:00 26.6 21 Sudeste 41 Sudeste 0 -- -- 47
2020-09-08 11:00:00 25.4 22 Sudeste 43 Sudeste 0 -- -- 52
2020-09-08 10:00:00 24.2 20 Sudeste 46 Sudeste 0 -- -- 58
2020-09-08 09:00:00 22.9 22 Sudeste 38 Sudeste 0 -- -- 61
2020-09-08 08:00:00 22.6 17 Sudeste 36 Sudeste 0 -- -- 68
2020-09-08 07:00:00 22.8 19 Sudeste 36 Sudeste 0 -- -- 69
2020-09-08 06:00:00 23.1 18 Sudeste 37 Sudeste 0 -- -- 64
2020-09-08 05:00:00 23.1 21 Sudeste 39 Sudeste 0 -- -- 64
2020-09-08 04:00:00 23.2 21 Sudeste 44 Sudeste 0 -- -- 60
2020-09-08 03:00:00 23.7 24 Sudeste 42 Sudeste 0 -- -- 58
2020-09-08 02:00:00 23.9 20 Sudeste 35 Sudeste 0 -- -- 61
2020-09-08 01:00:00 26.1 13 Sudeste 21 Sudeste 0 -- -- 44
2020-09-08 00:00:00 25.8 9 Sudoeste 20 Oeste 0 -- -- 44
2020-09-07 23:00:00 27.3 11 Oeste 17 Oeste 0 -- -- 41
2020-09-07 22:00:00 29.7 7 Sudoeste 23 Oeste 0 -- -- 36
2020-09-07 21:00:00 31.6 16 Oeste 32 Oeste 0 -- -- 35
2020-09-07 20:00:00 34.7 14 Oeste 23 Oeste 0 -- -- 26
2020-09-07 19:00:00 35.8 12 Oeste 22 Oeste 0 -- -- 24
2020-09-07 18:00:00 35.7 8 Oeste 17 Sudoeste 0 -- -- 25
2020-09-07 17:00:00 35.2 11 Noroeste 20 Oeste 0 -- -- 26
2020-09-07 16:00:00 33.8 8 Noroeste 21 Noroeste 0 -- -- 30
2020-09-07 15:00:00 33.1 9 Oeste 17 Oeste 0 -- -- 34
2020-09-07 14:00:00 31.2 6 Oeste 17 Norte 0 -- -- 39
2020-09-07 13:00:00 28.8 5 Noroeste 15 Oeste 0 -- -- 44
2020-09-07 12:00:00 27.3 4 Norte 10 Noroeste 0 -- -- 49
2020-09-07 11:00:00 24.9 6 Noroeste 10 Norte 0 -- -- 56
2020-09-07 10:00:00 23.2 5 Noroeste 8 Noroeste 0 -- -- 61
2020-09-07 09:00:00 21.7 3 Sudoeste 11 Nordeste 0 -- -- 65
2020-09-07 08:00:00 21.2 3 Nordeste 11 Norte 0 -- -- 67
2020-09-07 07:00:00 21.7 4 Nordeste 7 Nordeste 0 -- -- 66
2020-09-07 06:00:00 21.8 0 Calma 5 Norte 0 -- -- 65
2020-09-07 05:00:00 21.8 0 Calma 5 Noroeste 0 -- -- 64
2020-09-07 04:00:00 23 3 Nordeste 9 Sudeste 0 -- -- 61
2020-09-07 03:00:00 23.2 3 Sudeste 6 Sudeste 0 -- -- 60
2020-09-07 02:00:00 24 3 Este 9 Sudeste 0 -- -- 58
2020-09-07 01:00:00 24.8 3 Este 7 Sudeste 0 -- -- 55
2020-09-07 00:00:00 25.9 4 Oeste 10 Sudeste 0 -- -- 52
2020-09-06 23:00:00 27.4 4 Sudoeste 16 Oeste 0 -- -- 47
2020-09-06 22:00:00 27.2 9 Sudeste 28 Sudeste 0 -- -- 48
2020-09-06 21:00:00 29 15 Sudeste 32 Sudeste 0 -- -- 44
2020-09-06 20:00:00 31.6 15 Sudeste 22 Sudeste 0 -- -- 37
2020-09-06 19:00:00 33 9 Sudeste 23 Sudeste 0 -- -- 34
2020-09-06 18:00:00 33.3 10 Este 19 Sudeste 0 -- -- 33
2020-09-06 17:00:00 33.1 13 Sudeste 27 Sudeste 0 -- -- 33
2020-09-06 16:00:00 32.7 9 Sudeste 25 Sudeste 0 -- -- 34
2020-09-06 15:00:00 31.7 13 Este 28 Sudeste 0 -- -- 35
2020-09-06 14:00:00 30.5 16 Sudeste 30 Sudeste 0 -- -- 38
2020-09-06 13:00:00 29.9 12 Sudeste 24 Este 0 -- -- 38
2020-09-06 12:00:00 28.2 16 Sudeste 31 Sudeste 0 -- -- 43
2020-09-06 11:00:00 26.4 14 Sudeste 34 Sudeste 0 -- -- 48
2020-09-06 10:00:00 24.8 15 Sudeste 28 Sudeste 0 -- -- 52
2020-09-06 09:00:00 22.9 13 Sudeste 28 Sudeste 0 -- -- 58
2020-09-06 08:00:00 22.6 14 Sudeste 31 Sudeste 0 -- -- 61
2020-09-06 07:00:00 23 15 Sudeste 26 Sudeste 0 -- -- 58
2020-09-06 06:00:00 23.4 10 Sudeste 23 Sudeste 0 -- -- 56
2020-09-06 05:00:00 23.6 12 Sudeste 30 Sudeste 0 -- -- 56
2020-09-06 04:00:00 23.1 11 Sudeste 28 Sudeste 0 -- -- 58
2020-09-06 03:00:00 22.8 14 Sudeste 26 Sudeste 0 -- -- 63
2020-09-06 02:00:00 23 12 Sudeste 28 Sur 0 -- -- 59
2020-09-06 01:00:00 23.1 16 Sudeste 41 Sudeste 0 -- -- 56
2020-09-06 00:00:00 23.7 22 Sudeste 39 Sudeste 0 -- -- 56
2020-09-05 23:00:00 24.5 19 Sudeste 35 Sudeste 0 -- -- 53
2020-09-05 22:00:00 26.3 16 Sudeste 29 Sudeste 0 -- -- 47
2020-09-05 21:00:00 28.6 15 Sudeste 24 Sudeste 0 -- -- 38
2020-09-05 20:00:00 31.4 10 Sudeste 23 Sudeste 0 -- -- 31
2020-09-05 19:00:00 32.8 12 Sudeste 23 Sudeste 0 -- -- 28
2020-09-05 18:00:00 33.2 12 Sudeste 25 Sudeste 0 -- -- 27
2020-09-05 17:00:00 33.3 12 Sudeste 23 Este 0 -- -- 27
2020-09-05 16:00:00 32.7 11 Sudeste 25 Sudeste 0 -- -- 27
2020-09-05 15:00:00 31.7 13 Sudeste 30 Sudeste 0 -- -- 28
2020-09-05 14:00:00 30.6 14 Sudeste 33 Sudeste 0 -- -- 33
2020-09-05 13:00:00 28.8 18 Sudeste 37 Sudeste 0 -- -- 38
2020-09-05 12:00:00 27.3 18 Sudeste 37 Sudeste 0 -- -- 44
2020-09-05 11:00:00 25.6 20 Sudeste 37 Sudeste 0 -- -- 47
2020-09-05 10:00:00 24.3 18 Sudeste 32 Este 0 -- -- 54
2020-09-05 09:00:00 22.1 17 Sudeste 32 Sudeste 0 -- -- 65
2020-09-05 08:00:00 21.6 19 Sudeste 35 Sudeste 0 -- -- 67
2020-09-05 07:00:00 21.6 14 Sudeste 27 Sudeste 0 -- -- 67
2020-09-05 06:00:00 22.1 10 Sudeste 20 Sudeste 0 -- -- 63
2020-09-05 05:00:00 22.5 11 Sudeste 37 Sudeste 0 -- -- 61
2020-09-05 04:00:00 22.8 14 Sudeste 32 Sudeste 0 -- -- 57
2020-09-05 03:00:00 22.6 19 Sudeste 38 Sudeste 0 -- -- 55
2020-09-05 02:00:00 23.3 20 Sudeste 44 Sudeste 0 -- -- 47
2020-09-05 01:00:00 23.7 19 Sudeste 41 Sudeste 0 -- -- 43
2020-09-05 00:00:00 23.9 21 Sudeste 42 Este 0 -- -- 50
2020-09-04 23:00:00 24.6 18 Sudeste 40 Sudeste 0 -- -- 46
2020-09-04 22:00:00 25.7 18 Sudeste 34 Sudeste 0 -- -- 43
2020-09-04 21:00:00 27.2 16 Sudeste 37 Sudeste 0 -- -- 40
2020-09-04 20:00:00 29.2 17 Sudeste 37 Sudeste 0 -- -- 35
2020-09-04 19:00:00 30.4 21 Sudeste 51 Sudeste 0 -- -- 29
2020-09-04 18:00:00 30.8 24 Sudeste 44 Sudeste 0 -- -- 27
2020-09-04 17:00:00 31.1 21 Sudeste 42 Sudeste 0 -- -- 27
2020-09-04 16:00:00 30.9 23 Sudeste 41 Sudeste 0 -- -- 27
2020-09-04 15:00:00 30.6 19 Sudeste 40 Sudeste 0 -- -- 28
2020-09-04 14:00:00 29.6 22 Sudeste 40 Sudeste 0 -- -- 29
2020-09-04 13:00:00 28.9 22 Sudeste 41 Sudeste 0 -- -- 29
2020-09-04 12:00:00 27.9 15 Sudeste 37 Sudeste 0 -- -- 30
2020-09-04 11:00:00 26.2 19 Sudeste 40 Sudeste 0 -- -- 35
2020-09-04 10:00:00 24.8 10 Sudeste 32 Sudeste 0 -- -- 41
2020-09-04 09:00:00 22.7 17 Este 43 Sudeste 0 -- -- 51
2020-09-04 08:00:00 21.9 25 Sudeste 52 Sudeste 0 -- -- 57
2020-09-04 07:00:00 21.7 23 Sudeste 46 Sudeste 0 -- -- 61
2020-09-04 06:00:00 21.5 23 Sudeste 46 Sudeste 0 -- -- 65
2020-09-04 05:00:00 21.7 23 Sudeste 50 Sudeste 0 -- -- 65
2020-09-04 04:00:00 22.2 23 Sudeste 45 Sudeste 0 -- -- 59
2020-09-04 03:00:00 22.4 22 Sudeste 51 Sudeste 0 -- -- 60
2020-09-04 02:00:00 23.5 24 Sudeste 50 Sudeste 0 -- -- 54
2020-09-04 01:00:00 24.1 26 Sudeste 55 Sudeste 0 -- -- 53
2020-09-04 00:00:00 24.6 25 Sudeste 52 Sudeste 0 -- -- 49
2020-09-03 23:00:00 25 21 Sudeste 42 Sur 0 -- -- 46
2020-09-03 22:00:00 25.5 23 Sudeste 49 Sudeste 0 -- -- 47
2020-09-03 21:00:00 26 18 Sudeste 42 Sudeste 0 -- -- 44
2020-09-03 20:00:00 27.8 23 Sudeste 42 Sudeste 0 -- -- 35
2020-09-03 19:00:00 28.7 21 Sudeste 41 Sudeste 0 -- -- 33
2020-09-03 18:00:00 30.1 19 Sur 39 Sudeste 0 -- -- 33
2020-09-03 17:00:00 30 22 Sudeste 39 Sudeste 0 -- -- 34
2020-09-03 16:00:00 30.5 17 Sudeste 45 Sudeste 0 -- -- 33
2020-09-03 15:00:00 30 22 Sudeste 40 Sudeste 0 -- -- 34
2020-09-03 14:00:00 29.4 20 Sudeste 45 Sudeste 0 -- -- 34
2020-09-03 13:00:00 28.1 20 Sudeste 39 Sudeste 0 -- -- 40
2020-09-03 12:00:00 26.7 20 Sudeste 39 Sudeste 0 -- -- 47
2020-09-03 11:00:00 25.1 21 Sudeste 44 Sudeste 0 -- -- 54
2020-09-03 10:00:00 23.5 24 Sudeste 44 Sudeste 0 -- -- 62
2020-09-03 09:00:00 22.2 19 Sudeste 40 Sudeste 0 -- -- 66
2020-09-03 08:00:00 21.7 15 Sudeste 31 Sudeste 0 -- -- 66
2020-09-03 07:00:00 22 19 Sudeste 41 Este 0 -- -- 60
2020-09-03 06:00:00 22.4 17 Sudeste 37 Sudeste 0 -- -- 61
2020-09-03 05:00:00 22.8 17 Sudeste 34 Sudeste 0 -- -- 63
2020-09-03 04:00:00 23.3 16 Sudeste 32 Sudeste 0 -- -- 57
2020-09-03 03:00:00 23.8 6 Sudeste 21 Sudeste 0 -- -- 44
2020-09-03 02:00:00 24.3 9 Sudeste 22 Este 0 -- -- 43
2020-09-03 01:00:00 24.4 11 Sudeste 22 Sudeste 0 -- -- 40
2020-09-03 00:00:00 25 12 Sudeste 24 Sudeste 0 -- -- 39
2020-09-02 23:00:00 24.9 13 Sur 35 Sudeste 0 -- -- 38
2020-09-02 22:00:00 25.4 18 Sudeste 31 Sudeste 0 -- -- 37
2020-09-02 21:00:00 26.7 17 Sudeste 33 Sudeste 0 -- -- 36
2020-09-02 20:00:00 28.8 17 Sudeste 33 Sudeste 0 -- -- 34
2020-09-02 19:00:00 30.2 20 Sudeste 33 Sudeste 0 -- -- 30
2020-09-02 18:00:00 31.9 15 Sudeste 29 Sudeste 0 -- -- 27
2020-09-02 17:00:00 32.5 8 Sur 21 Sudeste 0 -- -- 25
2020-09-02 16:00:00 31.9 6 Sudeste 19 Sudeste 0 -- -- 24
2020-09-02 15:00:00 30.9 6 Oeste 19 Noroeste 0 -- -- 28
2020-09-02 14:00:00 29.4 5 Noroeste 14 Noroeste 0 -- -- 30
2020-09-02 13:00:00 27.6 5 Noroeste 15 Noroeste 0 -- -- 32
2020-09-02 12:00:00 25.2 5 Noroeste 10 Norte 0 -- -- 35
2020-09-02 11:00:00 23.4 5 Norte 10 Noroeste 0 -- -- 40
2020-09-02 10:00:00 22 4 Noroeste 6 Norte 0 -- -- 44
2020-09-02 09:00:00 20.6 3 Sur 5 Sur 0 -- -- 44
2020-09-02 08:00:00 19.7 0 Calma 2 Sur 0 -- -- 47
2020-09-02 07:00:00 20.2 0 Calma 5 Nordeste 0 -- -- 45
2020-09-02 06:00:00 20.6 3 Nordeste 11 Sudeste 0 -- -- 42
2020-09-02 05:00:00 22.4 6 Sudeste 12 Sudeste 0 -- -- 38
2020-09-02 04:00:00 21.6 8 Sudeste 15 Sudeste 0 -- -- 41
2020-09-02 03:00:00 21.6 6 Sudeste 11 Sur 0 -- -- 48
2020-09-02 02:00:00 21.4 0 Calma 8 Sur 0 -- -- 52
2020-09-02 01:00:00 21.5 2 Oeste 8 Oeste 0 -- -- 52
2020-09-02 00:00:00 22 6 Noroeste 16 Oeste 0 -- -- 49
2020-09-01 23:00:00 23.8 7 Sudoeste 17 Oeste 0 -- -- 38
2020-09-01 22:00:00 25.4 13 Oeste 25 Oeste 0 -- -- 36
2020-09-01 21:00:00 27.8 11 Oeste 20 Oeste 0 -- -- 29
2020-09-01 20:00:00 30.3 11 Oeste 20 Oeste 0 -- -- 26
2020-09-01 19:00:00 30.7 10 Oeste 22 Oeste 0 -- -- 25
2020-09-01 18:00:00 30.8 6 Oeste 20 Oeste 0 -- -- 26
2020-09-01 17:00:00 29.7 5 Noroeste 17 Oeste 0 -- -- 29
2020-09-01 16:00:00 28.8 7 Oeste 17 Oeste 0 -- -- 30
2020-09-01 15:00:00 27.2 4 Noroeste 13 Noroeste 0 -- -- 33
2020-09-01 14:00:00 25.7 5 Norte 18 Noroeste 0 -- -- 36
2020-09-01 13:00:00 25.3 13 Noroeste 22 Noroeste 0 -- -- 38
2020-09-01 12:00:00 24.6 4 Sudoeste 8 Noroeste 0 -- -- 37
2020-09-01 11:00:00 24.6 3 Oeste 10 Oeste 0 -- -- 37
2020-09-01 10:00:00 22.8 3 Sur 14 Sudeste 0 -- -- 42
2020-09-01 09:00:00 20.7 5 Sudeste 17 Sudeste 0 -- -- 47
2020-09-01 08:00:00 20.6 14 Sudeste 23 Este 0 -- -- 41
2020-09-01 07:00:00 21.1 11 Sudeste 18 Este 0 -- -- 41
2020-09-01 06:00:00 21.3 8 Este 12 Sudeste 0 -- -- 42
2020-09-01 05:00:00 21.5 3 Este 11 Este 0 -- -- 46
2020-09-01 04:00:00 21.7 4 Este 10 Sudeste 0 -- -- 49
2020-09-01 03:00:00 22.1 5 Nordeste 14 Noroeste 0 -- -- 47
2020-09-01 02:00:00 23.1 5 Sudoeste 31 Sudeste 0 -- -- 43
2020-09-01 01:00:00 23.2 17 Sudeste 33 Sudeste 0 -- -- 49
2020-09-01 00:00:00 23.5 16 Sudeste 31 Este 0 -- -- 50
2020-08-31 23:00:00 23.8 18 Sudeste 32 Sudeste 0 -- -- 48
2020-08-31 22:00:00 24.4 14 Sudeste 36 Sudeste 0 -- -- 46
2020-08-31 21:00:00 25.6 20 Sudeste 35 Sudeste 0 -- -- 42
2020-08-31 20:00:00 27.8 19 Sudeste 37 Sudeste 0 -- -- 35
2020-08-31 19:00:00 29.1 19 Sudeste 38 Sudeste 0 -- -- 28
2020-08-31 18:00:00 29.4 19 Sudeste 39 Sudeste 0 -- -- 28
2020-08-31 17:00:00 29.5 21 Sudeste 39 Sur 0 -- -- 28
2020-08-31 16:00:00 29.3 21 Sudeste 38 Sudeste 0 -- -- 28
2020-08-31 15:00:00 28.7 21 Sudeste 40 Sur 0 -- -- 32
2020-08-31 14:00:00 28.1 21 Sudeste 38 Sudeste 0 -- -- 35
2020-08-31 13:00:00 27.3 19 Sudeste 36 Sudeste 0 -- -- 41
2020-08-31 12:00:00 25.8 21 Sudeste 35 Sudeste 0 -- -- 48
2020-08-31 11:00:00 24.2 24 Sudeste 42 Sudeste 0 -- -- 55
2020-08-31 10:00:00 23 23 Sudeste 44 Sudeste 0 -- -- 60
2020-08-31 09:00:00 21.8 19 Sudeste 36 Sudeste 0 -- -- 66
2020-08-31 08:00:00 21.1 22 Sudeste 40 Sudeste 0 -- -- 69
2020-08-31 07:00:00 21 15 Sudeste 31 Sur 0 -- -- 70
2020-08-31 06:00:00 21.1 11 Sudeste 21 Sudeste 0 -- -- 69
2020-08-31 05:00:00 21.1 14 Sudeste 30 Este 0 -- -- 70
2020-08-31 04:00:00 21.1 13 Sudeste 27 Sudeste 0 -- -- 68
2020-08-31 03:00:00 21.6 8 Sudeste 20 Sudeste 0 -- -- 59
2020-08-31 02:00:00 22.3 5 Este 15 Sudeste 0 -- -- 44
2020-08-31 01:00:00 22.9 4 Este 17 Noroeste 0 -- -- 44
2020-08-31 00:00:00 24.1 10 Este 26 Sudeste 0 -- -- 39
2020-08-30 23:00:00 24.7 11 Sudeste 20 Este 0 -- -- 38
2020-08-30 22:00:00 26.5 12 Sudeste 21 Sudeste 0 -- -- 33
2020-08-30 21:00:00 28.3 5 Nordeste 12 Nordeste 0 -- -- 18
2020-08-30 20:00:00 29.9 6 Norte 20 Norte 0 -- -- 17
2020-08-30 19:00:00 30.4 10 Norte 28 Noroeste 0 -- -- 17
2020-08-30 18:00:00 31.1 5 Norte 24 Norte 0 -- -- 18
2020-08-30 17:00:00 30.4 11 Norte 20 Norte 0 -- -- 20
2020-08-30 16:00:00 30.3 8 Norte 22 Nordeste 0 -- -- 20
2020-08-30 15:00:00 29.2 8 Norte 22 Este 0 -- -- 21
2020-08-30 14:00:00 28.8 7 Norte 19 Sur 0 -- -- 22
2020-08-30 13:00:00 27.7 8 Norte 24 Norte 0 -- -- 25
2020-08-30 12:00:00 26.4 6 Este 17 Nordeste 0 -- -- 28
2020-08-30 11:00:00 23.7 7 Este 17 Nordeste 0 -- -- 28
2020-08-30 10:00:00 21.1 3 Oeste 11 Este 0 -- -- 31
2020-08-30 09:00:00 18.9 0 Calma 4 Oeste 0 -- -- 34
2020-08-30 08:00:00 18.9 2 Este 4 Sudeste 0 -- -- 33
2020-08-30 07:00:00 19.3 2 Nordeste 6 Sur 0 -- -- 32
2020-08-30 06:00:00 19.5 3 Nordeste 5 Nordeste 0 -- -- 31
2020-08-30 05:00:00 20.5 3 Nordeste 6 Nordeste 0 -- -- 30
2020-08-30 04:00:00 21 2 Sudeste 6 Sudeste 0 -- -- 30
2020-08-30 03:00:00 21.4 2 Sudeste 5 Sudeste 0 -- -- 29
2020-08-30 02:00:00 21.7 3 Sur 4 Sur 0 -- -- 28
2020-08-30 01:00:00 21.9 3 Sur 5 Sur 0 -- -- 27
2020-08-30 00:00:00 22.7 3 Norte 10 Norte 0 -- -- 25
2020-08-29 23:00:00 23.5 5 Norte 12 Norte 0 -- -- 24
2020-08-29 22:00:00 24.5 5 Norte 15 Noroeste 0 -- -- 23
2020-08-29 21:00:00 26.6 8 Norte 24 Norte 0 -- -- 22
2020-08-29 20:00:00 28.4 14 Noroeste 34 Noroeste 0 -- -- 22
2020-08-29 19:00:00 29 17 Noroeste 30 Noroeste 0 -- -- 21
2020-08-29 18:00:00 28.4 13 Noroeste 31 Noroeste 0 -- -- 22
2020-08-29 17:00:00 27.8 16 Noroeste 38 Oeste 0 -- -- 22
2020-08-29 16:00:00 27 20 Noroeste 44 Noroeste 0 -- -- 25
2020-08-29 15:00:00 26.2 22 Noroeste 37 Oeste 0 -- -- 26
2020-08-29 14:00:00 24.7 16 Oeste 32 Oeste 0 -- -- 28
2020-08-29 13:00:00 23.3 19 Oeste 30 Oeste 0 -- -- 32
2020-08-29 12:00:00 22.1 15 Oeste 29 Noroeste 0 -- -- 38
2020-08-29 11:00:00 20.5 12 Oeste 21 Noroeste 0 -- -- 45
2020-08-29 10:00:00 19.1 12 Oeste 19 Oeste 0 -- -- 49
2020-08-29 09:00:00 17.1 7 Sudoeste 11 Sudoeste 0 -- -- 51
2020-08-29 08:00:00 16.9 4 Oeste 10 Sudoeste 0 -- -- 51
2020-08-29 07:00:00 17.5 3 Oeste 11 Oeste 0 -- -- 47
2020-08-29 06:00:00 18.5 7 Sudoeste 11 Sudoeste 0 -- -- 43
2020-08-29 05:00:00 19.4 7 Sudoeste 12 Sudoeste 0 -- -- 40
2020-08-29 04:00:00 20.6 8 Sudoeste 12 Sudoeste 0 -- -- 38
2020-08-29 03:00:00 21.9 8 Oeste 14 Oeste 0 -- -- 36
2020-08-29 02:00:00 23.1 8 Oeste 23 Oeste 0 -- -- 33
2020-08-29 01:00:00 24.8 13 Oeste 24 Oeste 0 -- -- 33
2020-08-29 00:00:00 26.1 16 Oeste 24 Oeste 0 -- -- 41
2020-08-28 23:00:00 27.3 15 Oeste 36 Sudoeste 0 -- -- 46
2020-08-28 22:00:00 28.4 22 Oeste 39 Oeste 0 -- -- 45
2020-08-28 21:00:00 29.8 22 Oeste 58 Oeste 0 -- -- 43
2020-08-28 20:00:00 32.1 24 Oeste 45 Oeste 0 -- -- 39
2020-08-28 19:00:00 33.7 31 Oeste 49 Oeste 0 -- -- 33
2020-08-28 18:00:00 34 23 Oeste 46 Oeste 0 -- -- 31
2020-08-28 17:00:00 33.8 22 Oeste 45 Oeste 0 -- -- 31
2020-08-28 16:00:00 33.3 21 Oeste 46 Oeste 0 -- -- 33
2020-08-28 15:00:00 32.1 24 Oeste 40 Oeste 0 -- -- 38
2020-08-28 14:00:00 30.4 24 Oeste 35 Oeste 0 -- -- 43
2020-08-28 13:00:00 29.3 19 Oeste 31 Oeste 0 -- -- 45
2020-08-28 12:00:00 28.1 21 Oeste 29 Oeste 0 -- -- 47
2020-08-28 11:00:00 26.4 17 Oeste 26 Sudoeste 0 -- -- 53
2020-08-28 10:00:00 24.7 16 Oeste 23 Sudoeste 0 -- -- 59
2020-08-28 09:00:00 22.8 9 Sudoeste 14 Sudoeste 0 -- -- 61
2020-08-28 08:00:00 22.9 3 Noroeste 10 Norte 0 -- -- 51
2020-08-28 07:00:00 24.4 4 Norte 10 Noroeste 0 -- -- 44
2020-08-28 06:00:00 26.7 4 Sur 11 Sudoeste 0 -- -- 40
2020-08-28 05:00:00 26.8 5 Sur 12 Sur 0 -- -- 40
2020-08-28 04:00:00 27.1 5 Sur 10 Sudoeste 0 -- -- 39
2020-08-28 03:00:00 27.9 6 Sudoeste 17 Sudoeste 0 -- -- 37
2020-08-28 02:00:00 28.9 8 Sudoeste 16 Sudoeste 0 -- -- 35
2020-08-28 01:00:00 29.4 6 Sudoeste 14 Sur 0 -- -- 35
2020-08-28 00:00:00 30.1 7 Sudoeste 17 Sudoeste 0 -- -- 35
2020-08-27 23:00:00 31.1 8 Sudoeste 22 Sudoeste 0 -- -- 33
2020-08-27 22:00:00 32.5 8 Sudoeste 25 Oeste 0 -- -- 29
2020-08-27 21:00:00 34.1 13 Oeste 30 Oeste 0 -- -- 24
2020-08-27 20:00:00 36.3 23 Oeste 35 Oeste 0 -- -- 21
2020-08-27 19:00:00 38.1 24 Oeste 37 Oeste 0 -- -- 19
2020-08-27 18:00:00 39.3 22 Oeste 51 Oeste 0 -- -- 15
2020-08-27 17:00:00 39.3 23 Oeste 36 Oeste 0 -- -- 16
2020-08-27 16:00:00 39.2 23 Oeste 37 Oeste 0 -- -- 16
2020-08-27 15:00:00 38.5 18 Oeste 27 Oeste 0 -- -- 17
2020-08-27 14:00:00 36.8 11 Oeste 22 Oeste 0 -- -- 21
2020-08-27 13:00:00 35 10 Oeste 21 Oeste 0 -- -- 25
2020-08-27 12:00:00 33 5 Noroeste 11 Oeste 0 -- -- 28
2020-08-27 11:00:00 31.5 4 Oeste 7 Oeste 0 -- -- 30
2020-08-27 10:00:00 29.4 4 Noroeste 6 Noroeste 0 -- -- 35
2020-08-27 09:00:00 27.8 0 Calma 4 Sudeste 0 -- -- 38
2020-08-27 08:00:00 26.3 0 Calma 4 Sudeste 0 -- -- 40
2020-08-27 07:00:00 26.8 2 Oeste 4 Oeste 0 -- -- 38
2020-08-27 06:00:00 28.4 0 Calma 9 Sudeste 0 -- -- 34
2020-08-27 05:00:00 29.8 4 Sur 9 Sur 0 -- -- 32
2020-08-27 04:00:00 29.9 4 Sur 7 Sur 0 -- -- 33
2020-08-27 03:00:00 30.2 5 Sur 14 Sur 0 -- -- 35
2020-08-27 02:00:00 29.8 6 Sur 9 Sur 0 -- -- 38
2020-08-27 01:00:00 30.1 3 Sur 9 Sur 0 -- -- 37
2020-08-27 00:00:00 31.5 6 Sur 11 Sur 0 -- -- 35
2020-08-26 23:00:00 32 6 Sudoeste 11 Sur 0 -- -- 31
2020-08-26 22:00:00 33.4 7 Sudoeste 13 Sudoeste 0 -- -- 27
2020-08-26 21:00:00 35.1 9 Sudoeste 19 Oeste 0 -- -- 25
2020-08-26 20:00:00 36.9 14 Oeste 24 Oeste 0 -- -- 26
2020-08-26 19:00:00 38.3 13 Oeste 27 Oeste 0 -- -- 21
2020-08-26 18:00:00 39.2 12 Noroeste 23 Noroeste 0 -- -- 21
2020-08-26 17:00:00 39.2 12 Oeste 25 Noroeste 0 -- -- 20
2020-08-26 16:00:00 38.3 9 Noroeste 18 Noroeste 0 -- -- 23
2020-08-26 15:00:00 37.6 10 Noroeste 18 Oeste 0 -- -- 23
2020-08-26 14:00:00 36.1 5 Noroeste 17 Noroeste 0 -- -- 27
2020-08-26 13:00:00 34.4 6 Norte 15 Noroeste 0 -- -- 33
2020-08-26 12:00:00 32.7 5 Norte 11 Norte 0 -- -- 35
2020-08-26 11:00:00 29.7 6 Noroeste 12 Noroeste 0 -- -- 40
2020-08-26 10:00:00 27.2 4 Noroeste 11 Este 0 -- -- 45
2020-08-26 09:00:00 27.2 10 Sudeste 18 Sudeste 0 -- -- 43
2020-08-26 08:00:00 26.3 9 Sudeste 14 Sudeste 0 -- -- 42
2020-08-26 07:00:00 25.3 10 Sudeste 14 Sudeste 0 -- -- 46
2020-08-26 06:00:00 24.7 3 Nordeste 6 Nordeste 0 -- -- 59
2020-08-26 05:00:00 24.9 3 Nordeste 8 Nordeste 0 -- -- 61
2020-08-26 04:00:00 25.2 4 Nordeste 8 Nordeste 0 -- -- 55
2020-08-26 03:00:00 25.9 5 Norte 8 Nordeste 0 -- -- 58
2020-08-26 02:00:00 27 4 Sudoeste 9 Sudoeste 0 -- -- 53
2020-08-26 01:00:00 27.8 4 Oeste 8 Oeste 0 -- -- 53
2020-08-26 00:00:00 30 4 Sudoeste 9 Oeste 0 -- -- 43
2020-08-25 23:00:00 31.9 5 Sudoeste 15 Sudoeste 0 -- -- 35
2020-08-25 22:00:00 33.6 7 Sudoeste 15 Sudoeste 0 -- -- 30
2020-08-25 21:00:00 35.6 4 Oeste 18 Oeste 0 -- -- 25
2020-08-25 20:00:00 37.4 10 Oeste 26 Noroeste 0 -- -- 23
2020-08-25 19:00:00 38.2 9 Oeste 25 Oeste 0 -- -- 24
2020-08-25 18:00:00 38.5 15 Oeste 23 Oeste 0 -- -- 24
2020-08-25 17:00:00 38.3 10 Sudoeste 35 Oeste 0 -- -- 24
2020-08-25 16:00:00 37.3 7 Noroeste 21 Noroeste 0 -- -- 26
2020-08-25 15:00:00 36.3 6 Sudeste 19 Sudeste 0 -- -- 28
2020-08-25 14:00:00 34.7 8 Sudeste 27 Este 0 -- -- 30
2020-08-25 13:00:00 33 12 Sudeste 24 Sur 0 -- -- 31
2020-08-25 12:00:00 31.1 12 Sudeste 30 Sudeste 0 -- -- 38
2020-08-25 11:00:00 29.5 13 Sudeste 21 Sudeste 0 -- -- 45
2020-08-25 10:00:00 26.5 9 Sudeste 23 Sudeste 0 -- -- 60
2020-08-25 09:00:00 24.7 12 Sudeste 19 Sudeste 0 -- -- 68
2020-08-25 08:00:00 23.7 6 Sudeste 11 Sudeste 0 -- -- 71
2020-08-25 07:00:00 23.4 0 Calma 7 Norte 0 -- -- 71
2020-08-25 06:00:00 23.5 4 Norte 18 Sudeste 0 -- -- 71
2020-08-25 05:00:00 25 6 Sudeste 13 Sudeste 0 -- -- 68
2020-08-25 04:00:00 25.3 3 Este 5 Este 0 -- -- 66
2020-08-25 03:00:00 25.2 2 Oeste 10 Sudoeste 0 -- -- 66
2020-08-25 02:00:00 26.1 3 Sudeste 9 Sudoeste 0 -- -- 61
2020-08-25 01:00:00 26.5 4 Sudoeste 9 Sudoeste 0 -- -- 59
2020-08-25 00:00:00 28.3 5 Sudoeste 10 Sudoeste 0 -- -- 53
2020-08-24 23:00:00 29.3 10 Oeste 19 Oeste 0 -- -- 51
2020-08-24 22:00:00 31.1 11 Sudoeste 23 Sudoeste 0 -- -- 46
2020-08-24 21:00:00 32.5 12 Sudeste 23 Sudeste 0 -- -- 40
2020-08-24 20:00:00 34.2 14 Sudeste 23 Sudeste 0 -- -- 37
2020-08-24 19:00:00 35.3 12 Sudeste 26 Sudeste 0 -- -- 34
2020-08-24 18:00:00 35.8 7 Este 23 Sudeste 0 -- -- 34
2020-08-24 17:00:00 35.7 8 Sur 25 Este 0 -- -- 35
2020-08-24 16:00:00 35.2 11 Sudeste 23 Sudeste 0 -- -- 35
2020-08-24 15:00:00 34.5 10 Sudeste 26 Este 0 -- -- 33
2020-08-24 14:00:00 32.5 11 Sudeste 26 Sudeste 0 -- -- 40
2020-08-24 13:00:00 31.3 12 Sudeste 26 Sudeste 0 -- -- 43
2020-08-24 12:00:00 30.2 12 Sudeste 21 Sudeste 0 -- -- 48
2020-08-24 11:00:00 28.8 9 Sudeste 17 Este 0 -- -- 53
2020-08-24 10:00:00 26.9 9 Sudeste 18 Sudeste 0 -- -- 63
2020-08-24 09:00:00 24.7 10 Sudeste 21 Sudeste 0 -- -- 70
2020-08-24 08:00:00 23.5 15 Sudeste 24 Sudeste 0 -- -- 73
2020-08-24 07:00:00 23.5 8 Sudeste 14 Sudeste 0 -- -- 70
2020-08-24 06:00:00 24 4 Nordeste 20 Sudeste 0 -- -- 65
2020-08-24 05:00:00 24.6 13 Sudeste 22 Sudeste 0 -- -- 65
2020-08-24 04:00:00 25.1 13 Sudeste 23 Sudeste 0 -- -- 64
2020-08-24 03:00:00 25.3 15 Sudeste 25 Este 0 -- -- 63
2020-08-24 02:00:00 26.3 15 Sudeste 22 Sudeste 0 -- -- 51
2020-08-24 01:00:00 27.9 3 Este 11 Norte 0 -- -- 28
2020-08-24 00:00:00 29.9 4 Sur 12 Sur 0 -- -- 25
2020-08-23 23:00:00 30.2 7 Sur 15 Sudoeste 0 -- -- 26
2020-08-23 22:00:00 31.8 6 Sudoeste 15 Sudoeste 0 -- -- 20
2020-08-23 21:00:00 34.7 8 Oeste 23 Oeste 0 -- -- 14
2020-08-23 20:00:00 37.1 14 Oeste 23 Oeste 0 -- -- 12
2020-08-23 19:00:00 38.3 15 Oeste 27 Oeste 0 -- -- 12
2020-08-23 18:00:00 38.3 9 Oeste 26 Oeste 0 -- -- 12
2020-08-23 17:00:00 37.9 9 Noroeste 28 Oeste 0 -- -- 13
2020-08-23 16:00:00 37.3 11 Oeste 24 Oeste 0 -- -- 15
2020-08-23 15:00:00 36.1 9 Oeste 17 Noroeste 0 -- -- 18
2020-08-23 14:00:00 34.2 6 Norte 18 Noroeste 0 -- -- 19
2020-08-23 13:00:00 32.9 4 Norte 14 Nordeste 0 -- -- 20
2020-08-23 12:00:00 31.3 5 Norte 10 Norte 0 -- -- 25
2020-08-23 11:00:00 28.7 4 Norte 9 Norte 0 -- -- 28
2020-08-23 10:00:00 27.2 3 Nordeste 6 Norte 0 -- -- 28
2020-08-23 09:00:00 24.8 4 Sudeste 6 Sudeste 0 -- -- 35
2020-08-23 08:00:00 23 3 Sur 4 Sur 0 -- -- 37
2020-08-23 07:00:00 23.5 0 Calma 7 Norte 0 -- -- 37
2020-08-23 06:00:00 26.2 4 Norte 9 Este 0 -- -- 32
2020-08-23 05:00:00 26.4 5 Este 7 Este 0 -- -- 31
2020-08-23 04:00:00 25.4 0 Calma 4 Sur 0 -- -- 36
2020-08-23 03:00:00 26.1 2 Oeste 5 Norte 0 -- -- 35
2020-08-23 02:00:00 27.2 2 Nordeste 7 Sudoeste 0 -- -- 34
2020-08-23 01:00:00 29 5 Sudoeste 13 Sudoeste 0 -- -- 32
2020-08-23 00:00:00 29.3 6 Sur 13 Sur 0 -- -- 37
2020-08-22 23:00:00 30.5 6 Sudoeste 13 Sudoeste 0 -- -- 38
2020-08-22 22:00:00 32.6 9 Oeste 16 Oeste 0 -- -- 29
2020-08-22 21:00:00 35 7 Oeste 19 Noroeste 0 -- -- 25
2020-08-22 20:00:00 36.7 12 Noroeste 20 Oeste 0 -- -- 26
2020-08-22 19:00:00 37 13 Noroeste 22 Noroeste 0 -- -- 26
2020-08-22 18:00:00 37.3 8 Oeste 21 Oeste 0 -- -- 26
2020-08-22 17:00:00 36.5 14 Oeste 21 Oeste 0 -- -- 28
2020-08-22 16:00:00 35.4 8 Noroeste 22 Noroeste 0 -- -- 32
2020-08-22 15:00:00 34 4 Sudeste 15 Norte 0 -- -- 36
2020-08-22 14:00:00 32.7 8 Norte 15 Noroeste 0 -- -- 39
2020-08-22 13:00:00 31.7 5 Norte 14 Noroeste 0 -- -- 42
2020-08-22 12:00:00 29.7 5 Norte 13 Norte 0 -- -- 48
2020-08-22 11:00:00 27.9 8 Noroeste 13 Noroeste 0 -- -- 53
2020-08-22 10:00:00 26.4 3 Oeste 5 Oeste 0 -- -- 58
2020-08-22 09:00:00 24.5 2 Noroeste 4 Norte 0 -- -- 61
2020-08-22 08:00:00 23.6 3 Sudeste 4 Sudeste 0 -- -- 64
2020-08-22 07:00:00 23.4 0 Calma 4 Sudoeste 0 -- -- 62
2020-08-22 06:00:00 24.1 3 Sur 5 Sudeste 0 -- -- 60
2020-08-22 05:00:00 24.7 2 Oeste 3 Noroeste 0 -- -- 59
2020-08-22 04:00:00 25.1 0 Calma 4 Sur 0 -- -- 57
2020-08-22 03:00:00 25.4 2 Oeste 5 Oeste 0 -- -- 55
2020-08-22 02:00:00 26.2 2 Oeste 8 Oeste 0 -- -- 53
2020-08-22 01:00:00 26.6 3 Sudoeste 13 Sur 0 -- -- 50
2020-08-22 00:00:00 26.7 8 Sur 15 Sudoeste 0 -- -- 51
2020-08-21 23:00:00 27.5 9 Sudoeste 21 Oeste 0 -- -- 49
2020-08-21 22:00:00 29.3 14 Oeste 24 Oeste 0 -- -- 48
2020-08-21 21:00:00 33.2 9 Oeste 20 Oeste 0 -- -- 29
2020-08-21 20:00:00 35.2 14 Oeste 25 Oeste 0 -- -- 22
2020-08-21 19:00:00 35.9 17 Oeste 26 Oeste 0 -- -- 23
2020-08-21 18:00:00 35.8 18 Noroeste 30 Oeste 0 -- -- 26
2020-08-21 17:00:00 35.3 15 Oeste 28 Oeste 0 -- -- 27
2020-08-21 16:00:00 34.4 12 Oeste 25 Oeste 0 -- -- 28
2020-08-21 15:00:00 33.1 9 Noroeste 23 Oeste 0 -- -- 30
2020-08-21 14:00:00 31.9 9 Noroeste 23 Noroeste 0 -- -- 32
2020-08-21 13:00:00 29.8 8 Noroeste 18 Noroeste 0 -- -- 36
2020-08-21 12:00:00 28.8 6 Sudoeste 13 Oeste 0 -- -- 35
2020-08-21 11:00:00 26.1 0 Calma 8 Este 0 -- -- 37
2020-08-21 10:00:00 23.5 3 Este 8 Este 0 -- -- 50
2020-08-21 09:00:00 21.7 2 Nordeste 8 Nordeste 0 -- -- 55
2020-08-21 08:00:00 20.1 2 Nordeste 6 Norte 0 -- -- 38
2020-08-21 07:00:00 20.8 2 Oeste 4 Norte 0 -- -- 34
2020-08-21 06:00:00 20.9 2 Noroeste 13 Este 0 -- -- 30
2020-08-21 05:00:00 22.6 6 Nordeste 13 Nordeste 0 -- -- 29
2020-08-21 04:00:00 25.6 7 Sur 13 Sudeste 0 -- -- 19
2020-08-21 03:00:00 24.4 8 Sudeste 13 Sudeste 0 -- -- 27
2020-08-21 02:00:00 23.3 2 Sudoeste 8 Noroeste 0 -- -- 32
2020-08-21 01:00:00 24.5 3 Noroeste 10 Norte 0 -- -- 28
2020-08-21 00:00:00 26.5 7 Sudoeste 16 Sudoeste 0 -- -- 26
2020-08-20 23:00:00 27.4 8 Sudoeste 17 Sudoeste 0 -- -- 25
2020-08-20 22:00:00 28.4 13 Oeste 23 Oeste 0 -- -- 23
2020-08-20 21:00:00 30.7 15 Oeste 36 Oeste 0 -- -- 20
2020-08-20 20:00:00 33.8 24 Oeste 46 Oeste 0 -- -- 15
2020-08-20 19:00:00 36.1 22 Oeste 35 Oeste 0 -- -- 18
2020-08-20 18:00:00 37 21 Oeste 31 Noroeste 0 -- -- 18
2020-08-20 17:00:00 37.2 15 Oeste 31 Oeste 0 -- -- 18
2020-08-20 16:00:00 36.8 9 Noroeste 28 Oeste 0 -- -- 18
2020-08-20 15:00:00 35.8 8 Oeste 24 Noroeste 0 -- -- 19
2020-08-20 14:00:00 35.2 12 Noroeste 21 Noroeste 0 -- -- 19
2020-08-20 13:00:00 33.5 7 Noroeste 14 Noroeste 0 -- -- 21
2020-08-20 12:00:00 31.2 8 Noroeste 17 Noroeste 0 -- -- 23
2020-08-20 11:00:00 29.9 6 Este 13 Sudeste 0 -- -- 24
2020-08-20 10:00:00 27 8 Sudeste 15 Sudeste 0 -- -- 28
2020-08-20 09:00:00 23.9 0 Calma 10 Este 0 -- -- 32
2020-08-20 08:00:00 23.3 4 Este 9 Este 0 -- -- 32
2020-08-20 07:00:00 23.1 2 Nordeste 6 Sudeste 0 -- -- 31
2020-08-20 06:00:00 23.1 5 Nordeste 10 Norte 0 -- -- 29
2020-08-20 05:00:00 23.8 6 Norte 13 Norte 0 -- -- 29
2020-08-20 04:00:00 26.9 8 Sur 12 Sudeste 0 -- -- 24
2020-08-20 03:00:00 26.4 8 Sur 12 Sur 0 -- -- 26
2020-08-20 02:00:00 26.9 6 Sur 15 Sur 0 -- -- 26
2020-08-20 01:00:00 26.9 9 Sur 19 Sudoeste 0 -- -- 29
2020-08-20 00:00:00 27.5 9 Sudoeste 18 Sudoeste 0 -- -- 33